createdAt,value
2018-04-09T00:00:11.448Z,44.77
2018-04-09T00:02:39.184Z,44.17
2018-04-09T00:05:07.027Z,45.50
2018-04-09T00:07:34.685Z,45.40
2018-04-09T00:10:02.301Z,44.93
2018-04-09T00:12:29.964Z,46.90
2018-04-09T00:14:57.697Z,45.47
2018-04-09T00:17:25.348Z,44.73
2018-04-09T00:19:52.973Z,45.40
2018-04-09T00:22:20.566Z,44.60
2018-04-09T00:24:48.225Z,47.33
2018-04-09T00:27:15.858Z,50.40
2018-04-09T00:29:43.741Z,47.40
2018-04-09T00:32:11.368Z,48.87
2018-04-09T00:34:39.034Z,48.10
2018-04-09T00:37:06.705Z,48.73
2018-04-09T00:39:34.405Z,48.10
2018-04-09T00:42:01.994Z,49.50
2018-04-09T00:44:30.019Z,46.10
2018-04-09T00:46:57.880Z,47.07
2018-04-09T00:49:25.755Z,50.37
2018-04-09T00:51:53.361Z,46.90
2018-04-09T00:54:20.985Z,47.50
2018-04-09T00:56:48.693Z,50.67
2018-04-09T00:59:16.296Z,49.00
2018-04-09T01:01:43.934Z,47.93
2018-04-09T01:04:11.605Z,54.43
2018-04-09T01:06:39.273Z,48.93
2018-04-09T01:09:07.256Z,48.00
2018-04-09T01:11:34.857Z,49.23
2018-04-09T01:14:02.748Z,50.73
2018-04-09T01:16:30.395Z,51.83
2018-04-09T01:18:58.002Z,53.50
2018-04-09T01:21:26.100Z,54.10
2018-04-09T01:23:53.717Z,52.53
2018-04-09T01:26:21.334Z,51.77
2018-04-09T01:28:49.001Z,54.13
2018-04-09T01:31:16.623Z,53.50
2018-04-09T01:33:44.228Z,52.10
2018-04-09T01:36:11.854Z,49.17
2018-04-09T01:38:39.445Z,50.90
2018-04-09T01:41:07.087Z,50.83
2018-04-09T01:43:35.131Z,49.60
2018-04-09T01:46:02.873Z,49.73
2018-04-09T01:48:30.835Z,50.30
2018-04-09T01:50:58.704Z,50.90
2018-04-09T01:53:26.399Z,51.60
2018-04-09T01:55:54.008Z,49.50
2018-04-09T01:58:21.608Z,51.83
2018-04-09T02:00:49.245Z,49.97
2018-04-09T02:03:16.905Z,47.80
2018-04-09T02:05:44.544Z,47.40
2018-04-09T02:08:12.216Z,47.93
2018-04-09T02:10:39.866Z,46.23
2018-04-09T02:13:07.931Z,50.10
2018-04-09T02:15:35.520Z,51.00
2018-04-09T02:18:03.108Z,47.47
2018-04-09T02:20:31.002Z,48.90
2018-04-09T02:22:58.971Z,46.60
2018-04-09T02:25:26.642Z,47.20
2018-04-09T02:27:54.233Z,49.00
2018-04-09T02:30:22.215Z,46.53
2018-04-09T02:32:49.809Z,46.17
2018-04-09T02:35:17.428Z,45.63
2018-04-09T02:37:45.069Z,46.20
2018-04-09T02:40:13.015Z,46.13
2018-04-09T02:42:40.690Z,45.97
2018-04-09T02:45:08.338Z,47.20
2018-04-09T02:47:36.314Z,46.30
2018-04-09T02:50:03.943Z,45.27
2018-04-09T02:52:31.902Z,46.60
2018-04-09T02:54:59.502Z,45.37
2018-04-09T02:57:27.104Z,44.20
2018-04-09T02:59:54.719Z,45.67
2018-04-09T03:02:22.337Z,42.90
2018-04-09T03:04:50.094Z,45.73
2018-04-09T03:07:17.715Z,44.90
2018-04-09T03:09:45.301Z,44.53
2018-04-09T03:12:12.938Z,45.53
2018-04-09T03:14:40.611Z,44.10
2018-04-09T03:17:08.322Z,42.60
2018-04-09T03:19:35.907Z,44.20
2018-04-09T03:22:03.867Z,44.67
2018-04-09T03:24:31.452Z,42.53
2018-04-09T03:26:59.042Z,42.20
2018-04-09T03:29:26.742Z,42.83
2018-04-09T03:31:54.648Z,41.80
2018-04-09T03:34:22.271Z,42.87
2018-04-09T03:36:49.875Z,40.90
2018-04-09T03:39:17.535Z,45.77
2018-04-09T03:41:45.154Z,44.53
2018-04-09T03:44:12.764Z,44.33
2018-04-09T03:46:40.399Z,44.40
2018-04-09T03:49:08.000Z,43.17
2018-04-09T03:51:48.355Z,43.07
2018-04-09T03:54:16.048Z,44.20
2018-04-09T03:56:43.678Z,42.40
2018-04-09T03:59:11.629Z,47.83
2018-04-09T04:01:39.220Z,42.67
2018-04-09T04:04:06.910Z,45.03
2018-04-09T04:06:34.544Z,48.23
2018-04-09T04:09:02.151Z,45.37
2018-04-09T04:11:29.896Z,47.27
2018-04-09T04:13:57.493Z,44.73
2018-04-09T04:16:37.200Z,46.00
2018-04-09T04:19:16.790Z,50.27
2018-04-09T04:21:46.440Z,50.97
2018-04-09T04:24:14.053Z,50.80
2018-04-09T04:26:41.710Z,51.77
2018-04-09T04:29:09.371Z,50.90
2018-04-09T04:31:37.245Z,51.90
2018-04-09T04:34:04.909Z,52.90
2018-04-09T04:36:32.507Z,53.60
2018-04-09T04:39:00.641Z,54.87
2018-04-09T04:41:28.240Z,53.57
2018-04-09T04:43:56.169Z,54.67
2018-04-09T04:46:23.816Z,54.47
2018-04-09T04:48:51.720Z,53.27
2018-04-09T04:51:19.313Z,55.90
2018-04-09T04:53:46.968Z,51.00
2018-04-09T04:56:14.565Z,54.60
2018-04-09T04:58:42.395Z,55.60
2018-04-09T05:01:10.404Z,52.67
2018-04-09T05:03:38.005Z,56.17
2018-04-09T05:06:05.602Z,52.40
2018-04-09T05:08:33.311Z,52.40
2018-04-09T05:11:00.904Z,51.87
2018-04-09T05:13:28.501Z,52.27
2018-04-09T05:15:56.107Z,53.13
2018-04-09T05:18:24.069Z,49.07
2018-04-09T05:20:51.714Z,50.57
2018-04-09T05:23:19.340Z,54.70
2018-04-09T05:25:46.946Z,48.37
2018-04-09T05:28:14.563Z,46.43
2018-04-09T05:30:42.247Z,48.27
2018-04-09T05:33:09.944Z,52.13
2018-04-09T05:35:37.723Z,49.37
2018-04-09T05:38:05.374Z,46.63
2018-04-09T05:40:32.968Z,50.27
2018-04-09T05:43:00.991Z,48.27
2018-04-09T05:45:28.962Z,48.67
2018-04-09T05:47:56.642Z,50.60
2018-04-09T05:50:24.234Z,44.17
2018-04-09T05:52:51.853Z,46.40
2018-04-09T05:55:19.517Z,47.30
2018-04-09T05:57:47.374Z,42.83
2018-04-09T06:00:15.079Z,42.23
2018-04-09T06:02:43.012Z,40.70
2018-04-09T06:05:10.630Z,41.33
2018-04-09T06:07:38.312Z,47.10
2018-04-09T06:10:05.985Z,41.13
2018-04-09T06:12:33.894Z,43.43
2018-04-09T06:15:01.829Z,41.53
2018-04-09T06:17:29.506Z,40.43
2018-04-09T06:19:57.140Z,42.43
2018-04-09T06:22:24.976Z,40.50
2018-04-09T06:24:52.687Z,38.53
2018-04-09T06:27:20.358Z,40.30
2018-04-09T06:29:47.994Z,41.40
2018-04-09T06:32:15.657Z,43.53
2018-04-09T06:34:43.304Z,40.27
2018-04-09T06:37:11.026Z,37.20
2018-04-09T06:39:39.039Z,40.80
2018-04-09T06:42:07.050Z,40.77
2018-04-09T06:44:34.739Z,41.17
2018-04-09T06:47:02.467Z,40.93
2018-04-09T06:49:30.335Z,39.37
2018-04-09T06:51:57.926Z,37.00
2018-04-09T06:54:25.632Z,40.50
2018-04-09T06:56:53.296Z,36.70
2018-04-09T06:59:20.957Z,33.03
2018-04-09T07:01:48.672Z,27.77
2018-04-09T07:04:16.296Z,26.83
2018-04-09T07:06:44.246Z,26.63
2018-04-09T07:09:11.897Z,26.17
2018-04-09T07:11:39.529Z,26.30
2018-04-09T07:14:07.139Z,27.20
2018-04-09T07:16:34.881Z,25.83
2018-04-09T07:19:02.501Z,24.33
2018-04-09T07:21:30.104Z,24.43
2018-04-09T07:23:57.726Z,25.40
2018-04-09T07:26:25.488Z,26.27
2018-04-09T07:28:53.147Z,24.60
2018-04-09T07:31:20.757Z,24.90
2018-04-09T07:33:48.393Z,25.80
2018-04-09T07:36:16.236Z,26.00
2018-04-09T07:38:43.828Z,23.00
2018-04-09T07:41:11.490Z,22.90
2018-04-09T07:43:39.108Z,23.10
2018-04-09T07:46:06.973Z,21.90
2018-04-09T07:48:34.600Z,23.67
2018-04-09T07:51:02.504Z,24.53
2018-04-09T07:53:30.156Z,26.40
2018-04-09T07:55:57.757Z,22.50
2018-04-09T07:58:25.361Z,25.67
2018-04-09T08:00:53.256Z,23.90
2018-04-09T08:03:20.848Z,25.47
2018-04-09T08:05:48.473Z,27.80
2018-04-09T08:08:16.104Z,24.50
2018-04-09T08:10:43.829Z,24.80
2018-04-09T08:13:11.439Z,26.80
2018-04-09T08:15:39.096Z,26.20
2018-04-09T08:18:06.752Z,25.80
2018-04-09T08:20:34.351Z,24.30
2018-04-09T08:23:01.946Z,24.47
2018-04-09T08:25:29.632Z,26.83
2018-04-09T08:27:57.539Z,24.43
2018-04-09T08:30:25.177Z,27.23
2018-04-09T08:32:52.836Z,25.17
2018-04-09T08:35:20.672Z,27.30
2018-04-09T08:37:48.493Z,28.33
2018-04-09T08:40:16.209Z,25.50
2018-04-09T08:42:44.047Z,28.13
2018-04-09T08:45:11.735Z,27.30
2018-04-09T08:47:39.356Z,28.53
2018-04-09T08:50:07.218Z,30.73
2018-04-09T08:52:35.201Z,29.37
2018-04-09T08:55:02.792Z,28.57
2018-04-09T08:57:30.669Z,28.93
2018-04-09T08:59:58.324Z,29.67
2018-04-09T09:02:25.916Z,29.63
2018-04-09T09:04:53.606Z,29.23
2018-04-09T09:07:21.354Z,28.43
2018-04-09T09:09:48.982Z,28.47
2018-04-09T09:12:16.617Z,33.10
2018-04-09T09:14:44.560Z,28.57
2018-04-09T09:17:12.224Z,28.30
2018-04-09T09:19:40.373Z,29.20
2018-04-09T09:22:08.386Z,30.60
2018-04-09T09:24:36.059Z,28.60
2018-04-09T09:27:04.715Z,29.67
2018-04-09T09:29:32.370Z,25.77
2018-04-09T09:32:00.018Z,27.93
2018-04-09T09:34:27.609Z,28.40
2018-04-09T09:36:55.245Z,28.67
2018-04-09T09:39:22.884Z,26.73
2018-04-09T09:41:50.490Z,27.57
2018-04-09T09:44:18.361Z,26.63
2018-04-09T09:46:48.334Z,27.63
2018-04-09T09:49:15.965Z,24.00
2018-04-09T09:51:44.004Z,26.20
2018-04-09T09:54:11.748Z,26.70
2018-04-09T09:56:39.363Z,26.37
2018-04-09T09:59:06.981Z,26.03
2018-04-09T10:01:41.233Z,25.80
2018-04-09T10:04:08.887Z,25.03
2018-04-09T10:06:36.485Z,26.43
2018-04-09T10:09:04.499Z,25.40
2018-04-09T10:11:32.120Z,25.80
2018-04-09T10:13:59.799Z,25.23
2018-04-09T10:16:27.452Z,24.80
2018-04-09T10:18:55.107Z,25.03
2018-04-09T10:21:22.803Z,24.93
2018-04-09T10:23:50.463Z,25.83
2018-04-09T10:26:18.071Z,25.07
2018-04-09T10:28:45.715Z,24.40
2018-04-09T10:31:13.396Z,28.17
2018-04-09T10:33:41.095Z,25.60
2018-04-09T10:36:08.785Z,26.00
2018-04-09T10:38:36.459Z,25.27
2018-04-09T10:41:04.044Z,27.07
2018-04-09T10:43:31.658Z,24.10
2018-04-09T10:45:59.712Z,26.03
2018-04-09T10:48:27.322Z,25.07
2018-04-09T10:50:55.004Z,26.27
2018-04-09T10:53:22.932Z,24.97
2018-04-09T10:55:50.573Z,26.23
2018-04-09T10:58:18.494Z,25.73
2018-04-09T11:00:46.199Z,24.83
2018-04-09T11:03:13.825Z,25.83
2018-04-09T11:05:41.705Z,27.47
2018-04-09T11:08:09.365Z,25.17
2018-04-09T11:10:36.964Z,26.03
2018-04-09T11:13:04.850Z,24.83
2018-04-09T11:15:32.473Z,24.77
2018-04-09T11:18:00.143Z,25.20
2018-04-09T11:20:27.834Z,22.97
2018-04-09T11:22:55.415Z,24.77
2018-04-09T11:25:23.423Z,23.07
2018-04-09T11:27:51.021Z,23.70
2018-04-09T11:30:19.137Z,23.53
2018-04-09T11:32:46.852Z,22.70
2018-04-09T11:35:14.479Z,22.97
2018-04-09T11:37:42.105Z,24.13
2018-04-09T11:40:09.695Z,22.63
2018-04-09T11:42:37.354Z,23.67
2018-04-09T11:45:04.961Z,24.40
2018-04-09T11:47:32.534Z,21.27
2018-04-09T11:50:00.170Z,22.60
2018-04-09T11:52:27.768Z,22.30
2018-04-09T11:54:55.737Z,23.87
2018-04-09T11:57:23.515Z,21.37
2018-04-09T11:59:51.578Z,23.20
2018-04-09T12:02:19.221Z,21.80
2018-04-09T12:04:46.821Z,22.73
2018-04-09T12:07:14.440Z,21.87
2018-04-09T12:09:42.773Z,22.03
2018-04-09T12:12:10.504Z,21.00
2018-04-09T12:14:38.093Z,20.77
2018-04-09T12:17:05.807Z,20.00
2018-04-09T12:19:33.479Z,19.37
2018-04-09T12:22:01.157Z,21.30
2018-04-09T12:24:28.757Z,18.70
2018-04-09T12:26:56.352Z,21.23
2018-04-09T12:29:24.005Z,22.30
2018-04-09T12:31:51.897Z,20.90
2018-04-09T12:34:19.507Z,19.50
2018-04-09T12:36:47.262Z,21.07
2018-04-09T12:39:14.867Z,19.03
2018-04-09T12:41:42.515Z,19.17
2018-04-09T12:44:10.192Z,20.87
2018-04-09T12:46:37.884Z,19.90
2018-04-09T12:49:05.572Z,21.10
2018-04-09T12:51:33.496Z,20.00
2018-04-09T12:54:01.509Z,19.33
2018-04-09T12:56:29.125Z,19.00
2018-04-09T12:58:56.713Z,18.13
2018-04-09T13:01:24.400Z,17.37
2018-04-09T13:03:51.995Z,17.60
2018-04-09T13:06:19.610Z,18.97
2018-04-09T13:08:47.945Z,18.37
2018-04-09T13:11:15.542Z,19.07
2018-04-09T13:13:43.135Z,18.80
2018-04-09T13:16:10.754Z,18.20
2018-04-09T13:18:38.604Z,18.17
2018-04-09T13:21:06.568Z,17.60
2018-04-09T13:23:34.233Z,20.27
2018-04-09T13:26:01.893Z,19.83
2018-04-09T13:28:29.819Z,19.03
2018-04-09T13:30:57.457Z,19.30
2018-04-09T13:33:25.037Z,17.67
2018-04-09T13:35:53.244Z,18.37
2018-04-09T13:38:20.827Z,18.50
2018-04-09T13:40:48.428Z,18.20
2018-04-09T13:43:16.073Z,18.53
2018-04-09T13:45:43.742Z,18.63
2018-04-09T13:48:11.779Z,18.87
2018-04-09T13:50:39.497Z,17.80
2018-04-09T13:53:07.094Z,18.10
2018-04-09T13:55:34.703Z,16.20
2018-04-09T13:58:02.294Z,17.47
2018-04-09T14:00:30.293Z,18.57
2018-04-09T14:02:58.331Z,16.93
2018-04-09T14:05:26.145Z,17.17
2018-04-09T14:07:53.993Z,16.70
2018-04-09T14:10:22.031Z,16.67
2018-04-09T14:12:49.642Z,16.63
2018-04-09T14:15:17.261Z,16.80
2018-04-09T14:17:44.887Z,15.97
2018-04-09T14:20:12.616Z,16.17
2018-04-09T14:22:40.318Z,15.30
2018-04-09T14:25:07.960Z,15.30
2018-04-09T14:27:35.546Z,15.40
2018-04-09T14:30:03.525Z,15.03
2018-04-09T14:32:31.182Z,15.30
2018-04-09T14:34:58.870Z,14.93
2018-04-09T14:37:26.593Z,16.60
2018-04-09T14:39:54.238Z,13.80
2018-04-09T14:42:21.869Z,16.90
2018-04-09T14:44:49.546Z,16.43
2018-04-09T14:47:17.197Z,15.67
2018-04-09T14:49:45.185Z,16.20
2018-04-09T14:52:12.805Z,14.20
2018-04-09T14:54:40.449Z,14.60
2018-04-09T14:57:08.048Z,13.93
2018-04-09T14:59:38.804Z,14.47
2018-04-09T15:02:06.472Z,13.50
2018-04-09T15:04:34.530Z,15.20
2018-04-09T15:07:02.152Z,15.80
2018-04-09T15:09:29.772Z,13.70
2018-04-09T15:11:57.404Z,14.37
2018-04-09T15:14:25.000Z,13.77
2018-04-09T15:16:52.676Z,14.93
2018-04-09T15:19:20.316Z,15.80
2018-04-09T15:21:48.005Z,13.83
2018-04-09T15:24:15.633Z,15.33
2018-04-09T15:26:43.306Z,12.90
2018-04-09T15:29:10.939Z,14.30
2018-04-09T15:31:38.919Z,12.97
2018-04-09T15:34:06.530Z,13.93
2018-04-09T15:36:34.164Z,13.30
2018-04-09T15:39:02.007Z,12.80
2018-04-09T15:41:29.682Z,11.87
2018-04-09T15:43:57.649Z,12.17
2018-04-09T15:46:25.319Z,12.00
2018-04-09T15:48:52.959Z,10.80
2018-04-09T15:51:20.574Z,11.73
2018-04-09T15:53:48.179Z,12.10
2018-04-09T15:56:15.792Z,13.10
2018-04-09T15:58:43.396Z,12.73
2018-04-09T16:01:11.052Z,11.27
2018-04-09T16:03:38.638Z,12.43
2018-04-09T16:06:06.247Z,11.50
2018-04-09T16:08:34.174Z,11.10
2018-04-09T16:11:01.921Z,10.27
2018-04-09T16:13:29.523Z,10.80
2018-04-09T16:15:57.117Z,11.73
2018-04-09T16:18:24.799Z,11.60
2018-04-09T16:20:52.404Z,11.70
2018-04-09T16:23:20.007Z,11.23
2018-04-09T16:25:47.633Z,12.50
2018-04-09T16:28:15.256Z,12.30
2018-04-09T16:30:42.956Z,11.50
2018-04-09T16:33:10.666Z,11.33
2018-04-09T16:35:38.558Z,11.77
2018-04-09T16:38:06.152Z,13.33
2018-04-09T16:40:33.782Z,12.77
2018-04-09T16:43:01.523Z,11.43
2018-04-09T16:45:29.193Z,13.27
2018-04-09T16:47:56.904Z,13.70
2018-04-09T16:50:24.539Z,13.07
2018-04-09T16:52:52.228Z,13.47
2018-04-09T16:55:19.858Z,13.00
2018-04-09T16:57:47.511Z,12.60
2018-04-09T17:00:15.127Z,13.67
2018-04-09T17:02:43.053Z,12.43
2018-04-09T17:05:10.842Z,12.83
2018-04-09T17:07:38.485Z,13.97
2018-04-09T17:10:06.438Z,12.57
2018-04-09T17:12:34.127Z,13.97
2018-04-09T17:15:01.720Z,13.70
2018-04-09T17:17:29.578Z,14.50
2018-04-09T17:19:57.465Z,13.70
2018-04-09T17:22:25.063Z,14.17
2018-04-09T17:24:52.753Z,14.20
2018-04-09T17:27:20.341Z,14.23
2018-04-09T17:29:48.002Z,14.20
2018-04-09T17:32:15.625Z,14.00
2018-04-09T17:34:43.275Z,14.37
2018-04-09T17:37:11.055Z,14.40
2018-04-09T17:39:38.697Z,14.30
2018-04-09T17:42:06.881Z,14.77
2018-04-09T17:44:34.492Z,14.47
2018-04-09T17:47:02.771Z,15.23
2018-04-09T17:49:30.526Z,15.73
2018-04-09T17:51:58.160Z,14.03
2018-04-09T17:54:25.783Z,14.90
2018-04-09T17:56:53.398Z,15.70
2018-04-09T17:59:21.270Z,16.87
2018-04-09T18:01:49.387Z,16.20
2018-04-09T18:04:17.069Z,15.23
2018-04-09T18:06:44.746Z,15.57
2018-04-09T18:09:12.604Z,18.70
2018-04-09T18:11:40.246Z,18.70
2018-04-09T18:14:07.938Z,18.90
2018-04-09T18:16:35.545Z,17.17
2018-04-09T18:19:03.152Z,17.67
2018-04-09T18:21:30.804Z,18.60
2018-04-09T18:23:58.402Z,19.77
2018-04-09T18:26:26.109Z,20.77
2018-04-09T18:28:53.760Z,22.43
2018-04-09T18:31:21.504Z,20.63
2018-04-09T18:33:49.132Z,22.70
2018-04-09T18:36:16.747Z,21.40
2018-04-09T18:38:44.387Z,21.17
2018-04-09T18:41:12.009Z,21.10
2018-04-09T18:43:39.617Z,22.23
2018-04-09T18:46:07.231Z,21.73
2018-04-09T18:48:35.088Z,20.50
2018-04-09T18:51:03.232Z,20.57
2018-04-09T18:53:30.848Z,20.80
2018-04-09T18:55:58.447Z,20.93
2018-04-09T18:58:26.079Z,22.47
2018-04-09T19:00:53.725Z,21.50
2018-04-09T19:03:21.333Z,21.03
2018-04-09T19:05:48.973Z,20.70
2018-04-09T19:08:16.759Z,20.50
2018-04-09T19:10:44.399Z,19.87
2018-04-09T19:13:11.988Z,23.43
2018-04-09T19:15:39.982Z,23.73
2018-04-09T19:18:07.592Z,23.87
2018-04-09T19:20:35.288Z,22.87
2018-04-09T19:23:02.963Z,22.70
2018-04-09T19:25:30.627Z,26.90
2018-04-09T19:27:58.262Z,25.57
2018-04-09T19:30:25.912Z,25.43
2018-04-09T19:32:53.499Z,27.07
2018-04-09T19:35:21.135Z,27.60
2018-04-09T19:37:54.576Z,26.80
2018-04-09T19:40:28.177Z,27.10
2018-04-09T19:43:13.185Z,26.77
2018-04-09T19:45:58.284Z,26.87
2018-04-09T19:48:25.892Z,26.80
2018-04-09T19:50:53.850Z,26.37
2018-04-09T19:53:21.501Z,26.30
2018-04-09T19:55:49.191Z,27.20
2018-04-09T19:58:17.004Z,27.90
2018-04-09T20:00:44.642Z,27.67
2018-04-09T20:03:12.311Z,27.40
2018-04-09T20:05:39.958Z,28.30
2018-04-09T20:08:07.926Z,27.53
2018-04-09T20:10:35.668Z,28.70
2018-04-09T20:13:03.748Z,29.97
2018-04-09T20:15:31.454Z,30.20
2018-04-09T20:17:59.093Z,29.87
2018-04-09T20:20:26.929Z,29.60
2018-04-09T20:22:55.554Z,29.10
2018-04-09T20:25:23.286Z,30.17
2018-04-09T20:27:50.950Z,30.23
2018-04-09T20:30:18.643Z,30.43
2018-04-09T20:32:46.542Z,30.80
2018-04-09T20:35:14.219Z,31.70
2018-04-09T20:37:42.022Z,30.90
2018-04-09T20:40:10.227Z,32.00
2018-04-09T20:42:41.207Z,32.37
2018-04-09T20:45:08.883Z,33.90
2018-04-09T20:47:36.500Z,35.00
2018-04-09T20:50:05.070Z,33.53
2018-04-09T20:52:32.720Z,31.90
2018-04-09T20:55:00.330Z,35.40
2018-04-09T20:57:28.315Z,35.20
2018-04-09T20:59:55.924Z,33.47
2018-04-09T21:02:23.555Z,33.80
2018-04-09T21:04:51.169Z,36.87
2018-04-09T21:07:18.808Z,35.03
2018-04-09T21:09:46.481Z,35.10
2018-04-09T21:12:14.144Z,35.80
2018-04-09T21:14:41.816Z,34.63
2018-04-09T21:17:09.461Z,34.40
2018-04-09T21:19:37.115Z,36.77
2018-04-09T21:22:04.758Z,35.50
2018-04-09T21:24:32.616Z,35.80
2018-04-09T21:27:00.299Z,35.27
2018-04-09T21:29:27.963Z,35.50
2018-04-09T21:31:55.562Z,38.07
2018-04-09T21:34:23.211Z,37.20
2018-04-09T21:36:50.897Z,35.33
2018-04-09T21:39:18.496Z,35.67
2018-04-09T21:41:46.180Z,37.67
2018-04-09T21:44:13.757Z,37.03
2018-04-09T21:46:41.357Z,36.43
2018-04-09T21:49:09.001Z,36.60
2018-04-09T21:51:36.604Z,38.77
2018-04-09T21:54:04.471Z,39.00
2018-04-09T21:56:32.267Z,37.03
2018-04-09T21:59:00.167Z,37.63
2018-04-09T22:01:27.811Z,37.63
2018-04-09T22:03:56.118Z,38.90
2018-04-09T22:06:24.147Z,38.43
2018-04-09T22:08:51.973Z,38.00
2018-04-09T22:11:20.033Z,40.63
2018-04-09T22:13:47.658Z,38.13
2018-04-09T22:16:15.759Z,37.97
2018-04-09T22:18:43.424Z,39.77
2018-04-09T22:21:12.732Z,41.70
2018-04-09T22:23:41.122Z,39.50
2018-04-09T22:26:09.514Z,43.53
2018-04-09T22:28:37.154Z,40.87
2018-04-09T22:31:04.782Z,41.97
2018-04-09T22:33:32.415Z,40.67
2018-04-09T22:36:00.062Z,40.40
2018-04-09T22:38:27.659Z,41.43
2018-04-09T22:40:55.285Z,44.60
2018-04-09T22:43:23.038Z,44.37
2018-04-09T22:45:50.730Z,44.47
2018-04-09T22:48:18.375Z,45.73
2018-04-09T22:50:46.416Z,43.17
2018-04-09T22:53:14.133Z,43.93
2018-04-09T22:55:41.760Z,46.47
2018-04-09T22:58:09.480Z,45.80
2018-04-09T23:00:37.085Z,48.00
2018-04-09T23:03:04.694Z,47.03
2018-04-09T23:05:32.368Z,46.67
2018-04-09T23:07:59.994Z,47.57
2018-04-09T23:10:27.903Z,45.00
2018-04-09T23:12:56.012Z,49.80
2018-04-09T23:15:24.087Z,50.03
2018-04-09T23:17:51.955Z,43.77
2018-04-09T23:20:19.921Z,46.67
2018-04-09T23:22:47.909Z,47.00
2018-04-09T23:25:16.077Z,46.73
2018-04-09T23:27:43.925Z,47.90
2018-04-09T23:30:11.620Z,48.60
2018-04-09T23:32:39.284Z,46.37
2018-04-09T23:35:07.134Z,46.67
2018-04-09T23:37:34.883Z,46.00
2018-04-09T23:40:02.516Z,47.20
2018-04-09T23:42:31.112Z,47.53
2018-04-09T23:44:58.789Z,46.90
2018-04-09T23:47:26.426Z,46.70
2018-04-09T23:49:54.028Z,47.50
2018-04-09T23:52:22.871Z,47.50
2018-04-09T23:54:50.603Z,48.67
2018-04-09T23:57:18.346Z,47.70
2018-04-09T23:59:45.960Z,44.30
